createdAt,value
2022-09-12T16:14:47.431Z,81.04
2022-09-12T16:17:14.025Z,80.64
2022-09-12T16:19:40.623Z,78.80
2022-09-12T16:22:07.188Z,79.40
2022-09-12T16:24:33.844Z,79.25
2022-09-12T16:27:01.500Z,78.02
2022-09-12T16:29:28.184Z,78.84
2022-09-12T16:31:54.737Z,79.54
2022-09-12T16:34:21.310Z,79.95
2022-09-12T16:36:47.985Z,81.06
2022-09-12T16:39:14.699Z,82.81
2022-09-12T16:41:42.735Z,82.54
2022-09-12T16:44:10.247Z,81.69
2022-09-12T16:46:36.925Z,83.45
2022-09-12T16:49:06.122Z,84.15
2022-09-12T16:51:37.673Z,84.20
2022-09-12T16:54:04.390Z,82.74
2022-09-12T16:56:30.993Z,85.26
2022-09-12T16:58:57.573Z,85.23
2022-09-12T17:01:25.690Z,85.36
2022-09-12T17:03:54.258Z,83.13
2022-09-12T17:06:22.015Z,83.58
2022-09-12T17:08:51.013Z,85.41
2022-09-12T17:11:21.141Z,86.95
2022-09-12T17:14:04.317Z,86.22
2022-09-12T17:16:32.140Z,85.08
2022-09-12T17:18:58.727Z,85.43
2022-09-12T17:21:25.703Z,85.05
2022-09-12T17:23:52.372Z,85.50
2022-09-12T17:26:18.944Z,86.87
2022-09-12T17:28:48.158Z,87.50
2022-09-12T17:31:15.150Z,87.68
2022-09-12T17:33:42.070Z,88.84
2022-09-12T17:36:13.270Z,89.10
2022-09-12T17:38:39.927Z,88.68
2022-09-12T17:41:08.658Z,87.98
2022-09-12T17:43:37.942Z,87.69
2022-09-12T17:46:05.328Z,88.02
2022-09-12T17:48:32.488Z,87.46
2022-09-12T17:50:59.388Z,87.50
2022-09-12T17:53:26.267Z,87.80
2022-09-12T17:55:54.415Z,88.26
2022-09-12T17:58:21.066Z,88.52
2022-09-12T18:01:02.923Z,88.50
2022-09-12T18:03:29.600Z,89.27
2022-09-12T18:05:56.500Z,89.84
2022-09-12T18:08:24.256Z,90.06
2022-09-12T18:10:52.332Z,91.31
2022-09-12T18:13:19.966Z,91.32
2022-09-12T18:15:46.595Z,92.10
2022-09-12T18:18:13.264Z,92.41
2022-09-12T18:20:39.907Z,92.74
2022-09-12T18:23:06.701Z,92.52
2022-09-12T18:25:33.403Z,93.07
2022-09-12T18:28:00.499Z,93.83
2022-09-12T18:30:27.210Z,93.97
2022-09-12T18:32:53.921Z,94.06
2022-09-12T18:35:20.533Z,94.08
2022-09-12T18:37:47.169Z,94.85
2022-09-12T18:40:13.826Z,96.35
2022-09-12T18:42:40.456Z,98.11
2022-09-12T18:45:07.629Z,98.23
2022-09-12T18:47:34.176Z,99.39
2022-09-12T18:50:01.341Z,98.70
2022-09-12T18:52:28.244Z,99.09
2022-09-12T18:54:54.869Z,98.14
2022-09-12T18:57:21.432Z,97.90
2022-09-12T18:59:48.278Z,97.49
2022-09-12T19:02:16.398Z,96.70
2022-09-12T19:04:43.863Z,96.96
2022-09-12T19:07:10.729Z,97.31
2022-09-12T19:09:37.433Z,97.95
2022-09-12T19:12:04.214Z,98.23
2022-09-12T19:14:30.932Z,98.81
2022-09-12T19:16:57.607Z,99.28
2022-09-12T19:19:24.196Z,99.11
2022-09-12T19:21:50.805Z,99.61
2022-09-12T19:24:17.563Z,100.00
2022-09-12T19:26:44.772Z,99.80
2022-09-12T19:29:12.263Z,100.00
2022-09-12T19:31:39.894Z,100.00
2022-09-12T19:34:07.836Z,100.00
2022-09-12T19:36:50.402Z,100.00
2022-09-12T19:39:19.574Z,100.00
2022-09-12T19:41:46.981Z,100.00
2022-09-12T19:44:14.353Z,100.00
2022-09-12T19:46:40.990Z,100.00
2022-09-12T19:49:07.888Z,100.00
2022-09-12T19:51:34.568Z,100.00
2022-09-12T19:54:01.140Z,100.00
2022-09-12T19:56:27.719Z,100.00
2022-09-12T19:58:56.619Z,100.00
2022-09-12T20:01:28.351Z,100.00
2022-09-12T20:03:56.281Z,100.00
2022-09-12T20:06:23.252Z,100.00
2022-09-12T20:08:50.079Z,100.00
2022-09-12T20:11:19.118Z,100.00
2022-09-12T20:13:46.146Z,100.00
2022-09-12T20:16:22.170Z,100.00
2022-09-12T20:18:54.668Z,100.00
2022-09-12T20:21:25.403Z,100.00
2022-09-12T20:23:52.265Z,100.00
2022-09-12T20:26:20.386Z,100.00
2022-09-12T20:28:48.631Z,100.00
2022-09-12T20:31:16.557Z,100.00
2022-09-12T20:33:45.804Z,100.00
2022-09-12T20:36:16.808Z,100.00
2022-09-12T20:38:49.616Z,100.00
2022-09-12T20:41:17.097Z,100.00
2022-09-12T20:43:43.651Z,100.00
2022-09-12T20:46:11.508Z,100.00
2022-09-12T20:48:39.214Z,100.00
2022-09-12T20:51:06.774Z,100.00
2022-09-12T20:53:35.222Z,100.00
2022-09-12T20:56:03.262Z,100.00
2022-09-12T20:58:29.961Z,100.00
2022-09-12T21:00:57.213Z,100.00
2022-09-12T21:03:23.763Z,100.00
2022-09-12T21:05:50.351Z,100.00
2022-09-12T21:08:16.996Z,100.00
2022-09-12T21:10:44.808Z,100.00
2022-09-12T21:13:12.908Z,100.00
2022-09-12T21:15:40.713Z,100.00
2022-09-12T21:18:07.683Z,100.00
2022-09-12T21:20:34.783Z,100.00
2022-09-12T21:23:01.419Z,100.00
2022-09-12T21:25:29.181Z,100.00
2022-09-12T21:27:55.802Z,100.00
2022-09-12T21:30:22.513Z,100.00
2022-09-12T21:32:49.262Z,100.00
2022-09-12T21:35:16.133Z,100.00
2022-09-12T21:37:42.815Z,100.00
2022-09-12T21:40:09.838Z,100.00
2022-09-12T21:42:36.451Z,100.00
2022-09-12T21:45:03.062Z,100.00
2022-09-12T21:47:29.666Z,100.00
2022-09-12T21:49:56.374Z,100.00
2022-09-12T21:52:23.022Z,100.00
2022-09-12T21:54:49.632Z,100.00
2022-09-12T21:57:16.200Z,100.00
2022-09-12T21:59:42.782Z,100.00
2022-09-12T22:02:10.888Z,100.00
2022-09-12T22:04:37.540Z,100.00
2022-09-12T22:07:05.465Z,100.00
2022-09-12T22:09:33.937Z,100.00
2022-09-12T22:12:02.269Z,100.00
2022-09-12T22:14:29.487Z,100.00
2022-09-12T22:16:56.834Z,100.00
2022-09-12T22:19:23.721Z,100.00
2022-09-12T22:22:06.041Z,100.00
2022-09-12T22:24:32.617Z,100.00
2022-09-12T22:27:02.375Z,100.00
2022-09-12T22:29:29.014Z,100.00
2022-09-12T22:31:55.743Z,100.00
2022-09-12T22:34:22.623Z,100.00
2022-09-12T22:36:49.182Z,100.00
2022-09-12T22:39:15.823Z,100.00
2022-09-12T22:41:42.413Z,100.00
2022-09-12T22:44:10.754Z,100.00
2022-09-12T22:46:38.401Z,100.00
2022-09-12T22:49:06.651Z,100.00
2022-09-12T22:51:33.934Z,100.00
2022-09-12T22:54:00.514Z,100.00
2022-09-12T22:56:27.584Z,100.00
2022-09-12T22:58:54.514Z,100.00
2022-09-12T23:01:21.372Z,100.00
2022-09-12T23:03:48.048Z,100.00
2022-09-12T23:06:14.724Z,100.00
2022-09-12T23:08:41.470Z,100.00
2022-09-12T23:11:11.341Z,100.00
2022-09-12T23:13:38.676Z,100.00
2022-09-12T23:16:07.119Z,100.00
2022-09-12T23:18:36.090Z,100.00
2022-09-12T23:21:06.841Z,100.00
2022-09-12T23:23:33.952Z,100.00
2022-09-12T23:26:03.503Z,100.00
2022-09-12T23:28:30.283Z,100.00
2022-09-12T23:30:56.964Z,100.00
2022-09-12T23:33:23.696Z,100.00
2022-09-12T23:35:50.305Z,100.00
2022-09-12T23:38:16.896Z,100.00
2022-09-12T23:40:43.425Z,100.00
2022-09-12T23:43:09.982Z,100.00
2022-09-12T23:45:36.518Z,100.00
2022-09-12T23:48:03.268Z,100.00
2022-09-12T23:50:29.833Z,100.00
2022-09-12T23:52:56.393Z,100.00
2022-09-12T23:55:23.717Z,100.00
2022-09-12T23:57:50.272Z,100.00
